sensor_id;sensor_type;location;lat;lon;timestamp;P1;durP1;ratioP1;P2;durP2;ratioP2
18804;SDS011;9530;48.930;9.526;2023-02-26T00:02:08;2.80;;;1.50;;
18804;SDS011;9530;48.930;9.526;2023-02-26T00:04:34;2.40;;;1.63;;
18804;SDS011;9530;48.930;9.526;2023-02-26T00:07:01;3.00;;;1.73;;
18804;SDS011;9530;48.930;9.526;2023-02-26T00:09:29;3.43;;;1.90;;
18804;SDS011;9530;48.930;9.526;2023-02-26T00:11:56;2.33;;;1.80;;
18804;SDS011;9530;48.930;9.526;2023-02-26T00:14:24;2.43;;;1.60;;
18804;SDS011;9530;48.930;9.526;2023-02-26T00:16:54;5.50;;;2.00;;
18804;SDS011;9530;48.930;9.526;2023-02-26T00:19:32;3.37;;;1.70;;
18804;SDS011;9530;48.930;9.526;2023-02-26T00:21:59;4.47;;;2.03;;
18804;SDS011;9530;48.930;9.526;2023-02-26T00:24:26;2.77;;;1.63;;
18804;SDS011;9530;48.930;9.526;2023-02-26T00:26:53;2.70;;;2.00;;
18804;SDS011;9530;48.930;9.526;2023-02-26T00:29:20;3.83;;;1.90;;
18804;SDS011;9530;48.930;9.526;2023-02-26T00:31:47;5.83;;;1.97;;
18804;SDS011;9530;48.930;9.526;2023-02-26T00:34:16;6.57;;;1.90;;
18804;SDS011;9530;48.930;9.526;2023-02-26T00:36:43;3.63;;;1.60;;
18804;SDS011;9530;48.930;9.526;2023-02-26T00:39:19;3.00;;;1.70;;
18804;SDS011;9530;48.930;9.526;2023-02-26T00:41:58;3.90;;;1.90;;
18804;SDS011;9530;48.930;9.526;2023-02-26T00:44:26;3.97;;;1.80;;
18804;SDS011;9530;48.930;9.526;2023-02-26T00:46:53;2.03;;;1.70;;
18804;SDS011;9530;48.930;9.526;2023-02-26T00:49:34;2.70;;;1.80;;
18804;SDS011;9530;48.930;9.526;2023-02-26T00:52:13;5.50;;;1.70;;
18804;SDS011;9530;48.930;9.526;2023-02-26T00:54:43;3.87;;;2.50;;
18804;SDS011;9530;48.930;9.526;2023-02-26T00:57:09;3.57;;;2.47;;
18804;SDS011;9530;48.930;9.526;2023-02-26T00:59:36;2.60;;;1.80;;
18804;SDS011;9530;48.930;9.526;2023-02-26T01:02:03;6.13;;;2.10;;
18804;SDS011;9530;48.930;9.526;2023-02-26T01:04:31;3.03;;;1.70;;
18804;SDS011;9530;48.930;9.526;2023-02-26T01:06:58;3.60;;;1.97;;
18804;SDS011;9530;48.930;9.526;2023-02-26T01:09:26;3.37;;;1.60;;
18804;SDS011;9530;48.930;9.526;2023-02-26T01:11:55;5.07;;;2.17;;
18804;SDS011;9530;48.930;9.526;2023-02-26T01:14:26;3.77;;;2.00;;
18804;SDS011;9530;48.930;9.526;2023-02-26T01:16:55;3.10;;;1.80;;
18804;SDS011;9530;48.930;9.526;2023-02-26T01:19:28;4.77;;;1.97;;
18804;SDS011;9530;48.930;9.526;2023-02-26T01:22:05;3.77;;;1.90;;
18804;SDS011;9530;48.930;9.526;2023-02-26T01:24:35;3.87;;;2.10;;
18804;SDS011;9530;48.930;9.526;2023-02-26T01:27:02;8.60;;;1.93;;
18804;SDS011;9530;48.930;9.526;2023-02-26T01:29:30;3.40;;;1.80;;
18804;SDS011;9530;48.930;9.526;2023-02-26T01:31:59;4.60;;;1.90;;
18804;SDS011;9530;48.930;9.526;2023-02-26T01:34:35;3.47;;;1.73;;
18804;SDS011;9530;48.930;9.526;2023-02-26T01:37:10;4.57;;;2.00;;
18804;SDS011;9530;48.930;9.526;2023-02-26T01:39:47;2.20;;;1.70;;
18804;SDS011;9530;48.930;9.526;2023-02-26T01:42:22;2.70;;;1.90;;
18804;SDS011;9530;48.930;9.526;2023-02-26T01:44:54;4.13;;;2.13;;
18804;SDS011;9530;48.930;9.526;2023-02-26T01:47:26;3.57;;;1.90;;
18804;SDS011;9530;48.930;9.526;2023-02-26T01:50:07;2.70;;;1.87;;
18804;SDS011;9530;48.930;9.526;2023-02-26T01:55:47;3.77;;;2.20;;
18804;SDS011;9530;48.930;9.526;2023-02-26T01:58:16;3.10;;;1.87;;
18804;SDS011;9530;48.930;9.526;2023-02-26T02:00:45;3.77;;;2.43;;
18804;SDS011;9530;48.930;9.526;2023-02-26T02:03:11;3.73;;;2.10;;
18804;SDS011;9530;48.930;9.526;2023-02-26T02:05:40;2.43;;;1.93;;
18804;SDS011;9530;48.930;9.526;2023-02-26T02:08:09;6.37;;;2.33;;
18804;SDS011;9530;48.930;9.526;2023-02-26T02:10:37;3.27;;;2.00;;
18804;SDS011;9530;48.930;9.526;2023-02-26T02:13:09;9.20;;;2.20;;
18804;SDS011;9530;48.930;9.526;2023-02-26T02:15:44;3.10;;;2.10;;
18804;SDS011;9530;48.930;9.526;2023-02-26T02:18:17;5.67;;;2.10;;
18804;SDS011;9530;48.930;9.526;2023-02-26T02:20:55;4.87;;;2.23;;
18804;SDS011;9530;48.930;9.526;2023-02-26T02:23:38;4.00;;;2.37;;
18804;SDS011;9530;48.930;9.526;2023-02-26T02:26:12;2.33;;;1.63;;
18804;SDS011;9530;48.930;9.526;2023-02-26T02:29:02;5.03;;;2.23;;
18804;SDS011;9530;48.930;9.526;2023-02-26T02:31:48;3.13;;;2.00;;
18804;SDS011;9530;48.930;9.526;2023-02-26T02:34:18;4.03;;;2.00;;
18804;SDS011;9530;48.930;9.526;2023-02-26T02:36:50;3.80;;;2.30;;
18804;SDS011;9530;48.930;9.526;2023-02-26T02:39:21;3.50;;;2.03;;
18804;SDS011;9530;48.930;9.526;2023-02-26T02:41:52;4.53;;;2.00;;
18804;SDS011;9530;48.930;9.526;2023-02-26T02:44:22;7.63;;;2.20;;
18804;SDS011;9530;48.930;9.526;2023-02-26T02:46:53;3.60;;;2.10;;
18804;SDS011;9530;48.930;9.526;2023-02-26T02:49:22;3.20;;;1.90;;
18804;SDS011;9530;48.930;9.526;2023-02-26T02:51:53;2.53;;;1.97;;
18804;SDS011;9530;48.930;9.526;2023-02-26T02:54:24;4.93;;;1.87;;
18804;SDS011;9530;48.930;9.526;2023-02-26T02:56:57;3.53;;;1.70;;
18804;SDS011;9530;48.930;9.526;2023-02-26T02:59:27;6.13;;;1.80;;
18804;SDS011;9530;48.930;9.526;2023-02-26T03:02:05;3.00;;;1.83;;
18804;SDS011;9530;48.930;9.526;2023-02-26T03:04:34;3.40;;;1.60;;
18804;SDS011;9530;48.930;9.526;2023-02-26T03:07:02;2.53;;;1.93;;
18804;SDS011;9530;48.930;9.526;2023-02-26T03:09:28;4.80;;;2.50;;
18804;SDS011;9530;48.930;9.526;2023-02-26T03:11:55;5.60;;;2.17;;
18804;SDS011;9530;48.930;9.526;2023-02-26T03:14:22;3.53;;;2.27;;
18804;SDS011;9530;48.930;9.526;2023-02-26T03:16:55;5.07;;;2.90;;
18804;SDS011;9530;48.930;9.526;2023-02-26T03:19:34;5.13;;;2.47;;
18804;SDS011;9530;48.930;9.526;2023-02-26T03:22:07;4.10;;;2.30;;
18804;SDS011;9530;48.930;9.526;2023-02-26T03:24:39;3.40;;;2.00;;
18804;SDS011;9530;48.930;9.526;2023-02-26T03:27:14;4.87;;;2.20;;
18804;SDS011;9530;48.930;9.526;2023-02-26T03:29:52;4.33;;;2.33;;
18804;SDS011;9530;48.930;9.526;2023-02-26T03:32:25;3.77;;;2.20;;
18804;SDS011;9530;48.930;9.526;2023-02-26T03:34:58;6.23;;;2.60;;
18804;SDS011;9530;48.930;9.526;2023-02-26T03:37:30;4.13;;;2.23;;
18804;SDS011;9530;48.930;9.526;2023-02-26T03:40:01;3.10;;;1.97;;
18804;SDS011;9530;48.930;9.526;2023-02-26T03:42:33;2.37;;;1.70;;
18804;SDS011;9530;48.930;9.526;2023-02-26T03:45:04;3.60;;;1.77;;
18804;SDS011;9530;48.930;9.526;2023-02-26T03:47:35;6.63;;;2.13;;
18804;SDS011;9530;48.930;9.526;2023-02-26T03:50:05;6.07;;;2.00;;
18804;SDS011;9530;48.930;9.526;2023-02-26T03:52:37;3.90;;;2.10;;
18804;SDS011;9530;48.930;9.526;2023-02-26T03:55:07;5.20;;;2.33;;
18804;SDS011;9530;48.930;9.526;2023-02-26T03:57:38;3.37;;;2.00;;
18804;SDS011;9530;48.930;9.526;2023-02-26T04:00:05;4.83;;;2.20;;
18804;SDS011;9530;48.930;9.526;2023-02-26T04:02:36;6.50;;;2.00;;
18804;SDS011;9530;48.930;9.526;2023-02-26T04:05:09;3.33;;;1.80;;
18804;SDS011;9530;48.930;9.526;2023-02-26T04:07:38;7.63;;;2.20;;
18804;SDS011;9530;48.930;9.526;2023-02-26T04:10:05;6.17;;;2.13;;
18804;SDS011;9530;48.930;9.526;2023-02-26T04:12:34;4.30;;;2.13;;
18804;SDS011;9530;48.930;9.526;2023-02-26T04:15:01;2.97;;;1.90;;
18804;SDS011;9530;48.930;9.526;2023-02-26T04:17:29;2.50;;;2.00;;
18804;SDS011;9530;48.930;9.526;2023-02-26T04:19:57;3.03;;;1.97;;
18804;SDS011;9530;48.930;9.526;2023-02-26T04:22:23;4.77;;;2.10;;
18804;SDS011;9530;48.930;9.526;2023-02-26T04:24:50;4.83;;;1.87;;
18804;SDS011;9530;48.930;9.526;2023-02-26T04:27:17;5.00;;;1.90;;
18804;SDS011;9530;48.930;9.526;2023-02-26T04:29:44;4.97;;;2.00;;
18804;SDS011;9530;48.930;9.526;2023-02-26T04:32:10;8.13;;;2.27;;
18804;SDS011;9530;48.930;9.526;2023-02-26T04:34:37;6.27;;;2.03;;
18804;SDS011;9530;48.930;9.526;2023-02-26T04:37:05;6.40;;;1.90;;
18804;SDS011;9530;48.930;9.526;2023-02-26T04:39:32;5.40;;;1.90;;
18804;SDS011;9530;48.930;9.526;2023-02-26T04:41:58;4.67;;;1.90;;
18804;SDS011;9530;48.930;9.526;2023-02-26T04:44:25;5.93;;;2.23;;
18804;SDS011;9530;48.930;9.526;2023-02-26T04:46:52;2.90;;;2.20;;
18804;SDS011;9530;48.930;9.526;2023-02-26T04:49:18;4.73;;;1.90;;
18804;SDS011;9530;48.930;9.526;2023-02-26T04:51:45;3.17;;;1.70;;
18804;SDS011;9530;48.930;9.526;2023-02-26T04:54:13;5.23;;;2.30;;
18804;SDS011;9530;48.930;9.526;2023-02-26T04:56:40;4.47;;;2.23;;
18804;SDS011;9530;48.930;9.526;2023-02-26T04:59:07;3.40;;;1.80;;
18804;SDS011;9530;48.930;9.526;2023-02-26T05:01:33;4.00;;;2.03;;
18804;SDS011;9530;48.930;9.526;2023-02-26T05:04:00;3.73;;;1.80;;
18804;SDS011;9530;48.930;9.526;2023-02-26T05:06:27;2.63;;;1.83;;
18804;SDS011;9530;48.930;9.526;2023-02-26T05:08:54;4.83;;;2.30;;
18804;SDS011;9530;48.930;9.526;2023-02-26T05:11:22;2.87;;;1.70;;
18804;SDS011;9530;48.930;9.526;2023-02-26T05:13:48;4.73;;;2.10;;
18804;SDS011;9530;48.930;9.526;2023-02-26T05:16:15;4.93;;;1.83;;
18804;SDS011;9530;48.930;9.526;2023-02-26T05:18:42;5.27;;;2.00;;
18804;SDS011;9530;48.930;9.526;2023-02-26T05:21:08;4.57;;;1.70;;
18804;SDS011;9530;48.930;9.526;2023-02-26T05:23:35;4.73;;;2.13;;
18804;SDS011;9530;48.930;9.526;2023-02-26T05:26:02;3.40;;;1.80;;
18804;SDS011;9530;48.930;9.526;2023-02-26T05:28:30;3.23;;;2.03;;
18804;SDS011;9530;48.930;9.526;2023-02-26T05:30:57;3.67;;;1.80;;
18804;SDS011;9530;48.930;9.526;2023-02-26T05:33:24;3.70;;;2.20;;
18804;SDS011;9530;48.930;9.526;2023-02-26T05:35:52;5.13;;;1.90;;
18804;SDS011;9530;48.930;9.526;2023-02-26T05:38:18;5.73;;;2.27;;
18804;SDS011;9530;48.930;9.526;2023-02-26T05:40:45;4.37;;;2.10;;
18804;SDS011;9530;48.930;9.526;2023-02-26T05:43:12;4.07;;;2.30;;
18804;SDS011;9530;48.930;9.526;2023-02-26T05:45:40;3.10;;;1.83;;
18804;SDS011;9530;48.930;9.526;2023-02-26T05:48:06;5.90;;;2.07;;
18804;SDS011;9530;48.930;9.526;2023-02-26T05:50:35;3.70;;;1.90;;
18804;SDS011;9530;48.930;9.526;2023-02-26T05:53:01;4.67;;;1.80;;
18804;SDS011;9530;48.930;9.526;2023-02-26T05:55:28;3.33;;;2.00;;
18804;SDS011;9530;48.930;9.526;2023-02-26T05:57:55;4.47;;;2.20;;
18804;SDS011;9530;48.930;9.526;2023-02-26T06:00:21;5.47;;;2.17;;
18804;SDS011;9530;48.930;9.526;2023-02-26T06:02:49;5.50;;;2.37;;
18804;SDS011;9530;48.930;9.526;2023-02-26T06:05:16;5.93;;;2.30;;
18804;SDS011;9530;48.930;9.526;2023-02-26T06:07:43;4.03;;;2.57;;
18804;SDS011;9530;48.930;9.526;2023-02-26T06:10:10;5.57;;;2.37;;
18804;SDS011;9530;48.930;9.526;2023-02-26T06:12:37;3.33;;;1.80;;
18804;SDS011;9530;48.930;9.526;2023-02-26T06:15:05;4.63;;;1.87;;
18804;SDS011;9530;48.930;9.526;2023-02-26T06:17:33;4.73;;;2.10;;
18804;SDS011;9530;48.930;9.526;2023-02-26T06:20:03;4.57;;;2.37;;
18804;SDS011;9530;48.930;9.526;2023-02-26T06:22:31;3.33;;;2.10;;
18804;SDS011;9530;48.930;9.526;2023-02-26T06:24:57;7.63;;;2.67;;
18804;SDS011;9530;48.930;9.526;2023-02-26T06:27:24;4.67;;;2.50;;
18804;SDS011;9530;48.930;9.526;2023-02-26T06:29:51;4.80;;;2.00;;
18804;SDS011;9530;48.930;9.526;2023-02-26T06:32:17;5.67;;;2.17;;
18804;SDS011;9530;48.930;9.526;2023-02-26T06:34:44;4.87;;;2.60;;
18804;SDS011;9530;48.930;9.526;2023-02-26T06:37:12;5.27;;;3.47;;
18804;SDS011;9530;48.930;9.526;2023-02-26T06:39:39;7.60;;;4.03;;
18804;SDS011;9530;48.930;9.526;2023-02-26T06:42:05;7.00;;;3.80;;
18804;SDS011;9530;48.930;9.526;2023-02-26T06:44:32;10.70;;;4.40;;
18804;SDS011;9530;48.930;9.526;2023-02-26T06:46:59;9.20;;;4.47;;
18804;SDS011;9530;48.930;9.526;2023-02-26T06:49:25;6.43;;;4.27;;
18804;SDS011;9530;48.930;9.526;2023-02-26T06:51:52;7.60;;;4.70;;
18804;SDS011;9530;48.930;9.526;2023-02-26T06:54:20;8.40;;;4.53;;
18804;SDS011;9530;48.930;9.526;2023-02-26T06:56:47;11.20;;;5.20;;
18804;SDS011;9530;48.930;9.526;2023-02-26T06:59:13;9.53;;;4.70;;
18804;SDS011;9530;48.930;9.526;2023-02-26T07:01:40;9.90;;;5.30;;
18804;SDS011;9530;48.930;9.526;2023-02-26T07:04:07;8.53;;;4.50;;
18804;SDS011;9530;48.930;9.526;2023-02-26T07:06:33;7.43;;;4.27;;
18804;SDS011;9530;48.930;9.526;2023-02-26T07:09:00;10.17;;;4.87;;
18804;SDS011;9530;48.930;9.526;2023-02-26T07:11:28;9.43;;;4.70;;
18804;SDS011;9530;48.930;9.526;2023-02-26T07:13:55;8.40;;;4.73;;
18804;SDS011;9530;48.930;9.526;2023-02-26T07:16:21;7.97;;;4.47;;
18804;SDS011;9530;48.930;9.526;2023-02-26T07:18:48;8.80;;;5.57;;
18804;SDS011;9530;48.930;9.526;2023-02-26T07:21:15;10.67;;;6.23;;
18804;SDS011;9530;48.930;9.526;2023-02-26T07:23:41;14.70;;;9.07;;
18804;SDS011;9530;48.930;9.526;2023-02-26T07:26:08;16.27;;;9.93;;
18804;SDS011;9530;48.930;9.526;2023-02-26T07:28:36;17.83;;;12.60;;
18804;SDS011;9530;48.930;9.526;2023-02-26T07:31:03;19.17;;;12.27;;
18804;SDS011;9530;48.930;9.526;2023-02-26T07:33:30;14.53;;;9.57;;
18804;SDS011;9530;48.930;9.526;2023-02-26T07:35:59;18.53;;;11.43;;
18804;SDS011;9530;48.930;9.526;2023-02-26T07:38:25;13.20;;;7.73;;
18804;SDS011;9530;48.930;9.526;2023-02-26T07:40:53;12.43;;;7.57;;
18804;SDS011;9530;48.930;9.526;2023-02-26T07:43:21;14.93;;;9.20;;
18804;SDS011;9530;48.930;9.526;2023-02-26T07:45:49;18.97;;;9.90;;
18804;SDS011;9530;48.930;9.526;2023-02-26T07:48:17;17.43;;;11.40;;
18804;SDS011;9530;48.930;9.526;2023-02-26T07:50:44;13.10;;;9.00;;
18804;SDS011;9530;48.930;9.526;2023-02-26T07:53:10;10.00;;;6.80;;
18804;SDS011;9530;48.930;9.526;2023-02-26T07:55:37;12.00;;;6.23;;
18804;SDS011;9530;48.930;9.526;2023-02-26T07:58:04;18.83;;;7.73;;
18804;SDS011;9530;48.930;9.526;2023-02-26T08:00:30;17.53;;;8.93;;
18804;SDS011;9530;48.930;9.526;2023-02-26T08:02:58;16.03;;;9.20;;
18804;SDS011;9530;48.930;9.526;2023-02-26T08:05:25;18.93;;;7.80;;
18804;SDS011;9530;48.930;9.526;2023-02-26T08:07:52;17.23;;;8.63;;
18804;SDS011;9530;48.930;9.526;2023-02-26T08:10:18;10.90;;;6.50;;
18804;SDS011;9530;48.930;9.526;2023-02-26T08:12:45;9.83;;;5.80;;
18804;SDS011;9530;48.930;9.526;2023-02-26T08:15:12;7.40;;;3.20;;
18804;SDS011;9530;48.930;9.526;2023-02-26T08:17:39;7.90;;;3.30;;
18804;SDS011;9530;48.930;9.526;2023-02-26T08:20:07;6.67;;;4.67;;
18804;SDS011;9530;48.930;9.526;2023-02-26T08:22:36;6.67;;;2.70;;
18804;SDS011;9530;48.930;9.526;2023-02-26T08:25:03;6.27;;;3.10;;
18804;SDS011;9530;48.930;9.526;2023-02-26T08:27:31;7.03;;;3.37;;
18804;SDS011;9530;48.930;9.526;2023-02-26T08:29:57;7.17;;;2.20;;
18804;SDS011;9530;48.930;9.526;2023-02-26T08:32:24;3.27;;;2.00;;
18804;SDS011;9530;48.930;9.526;2023-02-26T08:34:52;9.53;;;2.40;;
18804;SDS011;9530;48.930;9.526;2023-02-26T08:37:20;4.90;;;2.23;;
18804;SDS011;9530;48.930;9.526;2023-02-26T08:39:48;5.90;;;2.60;;
18804;SDS011;9530;48.930;9.526;2023-02-26T08:42:14;6.33;;;2.23;;
18804;SDS011;9530;48.930;9.526;2023-02-26T08:44:41;5.30;;;2.40;;
18804;SDS011;9530;48.930;9.526;2023-02-26T08:47:08;5.20;;;2.40;;
18804;SDS011;9530;48.930;9.526;2023-02-26T08:49:35;2.87;;;1.90;;
18804;SDS011;9530;48.930;9.526;2023-02-26T08:52:01;2.90;;;2.00;;
18804;SDS011;9530;48.930;9.526;2023-02-26T08:54:29;3.40;;;1.60;;
18804;SDS011;9530;48.930;9.526;2023-02-26T08:56:56;4.33;;;1.80;;
18804;SDS011;9530;48.930;9.526;2023-02-26T08:59:23;4.27;;;2.33;;
18804;SDS011;9530;48.930;9.526;2023-02-26T09:01:50;3.47;;;1.57;;
18804;SDS011;9530;48.930;9.526;2023-02-26T09:04:17;4.00;;;1.83;;
18804;SDS011;9530;48.930;9.526;2023-02-26T09:06:43;2.77;;;1.60;;
18804;SDS011;9530;48.930;9.526;2023-02-26T09:09:10;3.70;;;1.70;;
18804;SDS011;9530;48.930;9.526;2023-02-26T09:11:38;3.50;;;1.47;;
18804;SDS011;9530;48.930;9.526;2023-02-26T09:14:05;4.87;;;1.77;;
18804;SDS011;9530;48.930;9.526;2023-02-26T09:16:32;2.10;;;1.73;;
18804;SDS011;9530;48.930;9.526;2023-02-26T09:19:00;4.47;;;1.93;;
18804;SDS011;9530;48.930;9.526;2023-02-26T09:21:28;3.60;;;2.07;;
18804;SDS011;9530;48.930;9.526;2023-02-26T09:23:55;5.00;;;2.70;;
18804;SDS011;9530;48.930;9.526;2023-02-26T09:26:21;5.53;;;1.60;;
18804;SDS011;9530;48.930;9.526;2023-02-26T09:28:49;3.17;;;1.37;;
18804;SDS011;9530;48.930;9.526;2023-02-26T09:31:16;2.80;;;1.30;;
18804;SDS011;9530;48.930;9.526;2023-02-26T09:33:43;5.13;;;2.00;;
18804;SDS011;9530;48.930;9.526;2023-02-26T09:36:09;3.23;;;1.80;;
18804;SDS011;9530;48.930;9.526;2023-02-26T09:38:36;6.57;;;2.20;;
18804;SDS011;9530;48.930;9.526;2023-02-26T09:41:04;3.43;;;2.00;;
18804;SDS011;9530;48.930;9.526;2023-02-26T09:43:37;7.93;;;4.27;;
18804;SDS011;9530;48.930;9.526;2023-02-26T09:46:27;2.93;;;1.63;;
18804;SDS011;9530;48.930;9.526;2023-02-26T09:49:06;5.00;;;1.80;;
18804;SDS011;9530;48.930;9.526;2023-02-26T09:51:40;5.10;;;2.77;;
18804;SDS011;9530;48.930;9.526;2023-02-26T09:54:11;4.57;;;2.40;;
18804;SDS011;9530;48.930;9.526;2023-02-26T09:56:41;3.17;;;1.97;;
18804;SDS011;9530;48.930;9.526;2023-02-26T09:59:10;5.23;;;2.13;;
18804;SDS011;9530;48.930;9.526;2023-02-26T10:01:38;3.43;;;1.77;;
18804;SDS011;9530;48.930;9.526;2023-02-26T10:04:12;1.90;;;1.47;;
18804;SDS011;9530;48.930;9.526;2023-02-26T10:06:52;3.47;;;1.83;;
18804;SDS011;9530;48.930;9.526;2023-02-26T10:09:31;3.63;;;1.73;;
18804;SDS011;9530;48.930;9.526;2023-02-26T10:12:05;2.57;;;1.80;;
18804;SDS011;9530;48.930;9.526;2023-02-26T10:14:40;3.70;;;2.03;;
18804;SDS011;9530;48.930;9.526;2023-02-26T10:17:11;2.93;;;1.87;;
18804;SDS011;9530;48.930;9.526;2023-02-26T10:19:46;3.77;;;2.03;;
18804;SDS011;9530;48.930;9.526;2023-02-26T10:22:20;3.13;;;2.00;;
18804;SDS011;9530;48.930;9.526;2023-02-26T10:24:51;2.37;;;1.67;;
18804;SDS011;9530;48.930;9.526;2023-02-26T10:27:24;4.23;;;2.00;;
18804;SDS011;9530;48.930;9.526;2023-02-26T10:30:02;5.00;;;1.57;;
18804;SDS011;9530;48.930;9.526;2023-02-26T10:32:32;2.87;;;1.70;;
18804;SDS011;9530;48.930;9.526;2023-02-26T10:35:03;2.53;;;1.73;;
18804;SDS011;9530;48.930;9.526;2023-02-26T10:37:37;3.47;;;1.60;;
18804;SDS011;9530;48.930;9.526;2023-02-26T10:40:13;2.80;;;1.60;;
18804;SDS011;9530;48.930;9.526;2023-02-26T10:42:46;2.60;;;1.60;;
18804;SDS011;9530;48.930;9.526;2023-02-26T10:45:23;2.47;;;1.50;;
18804;SDS011;9530;48.930;9.526;2023-02-26T10:47:58;2.93;;;1.60;;
18804;SDS011;9530;48.930;9.526;2023-02-26T10:50:32;2.30;;;1.60;;
18804;SDS011;9530;48.930;9.526;2023-02-26T10:53:00;1.90;;;1.47;;
18804;SDS011;9530;48.930;9.526;2023-02-26T10:55:31;3.33;;;1.90;;
18804;SDS011;9530;48.930;9.526;2023-02-26T10:58:04;1.60;;;1.50;;
18804;SDS011;9530;48.930;9.526;2023-02-26T11:00:36;2.80;;;1.70;;
18804;SDS011;9530;48.930;9.526;2023-02-26T11:03:05;2.50;;;1.53;;
18804;SDS011;9530;48.930;9.526;2023-02-26T11:05:34;4.20;;;1.77;;
18804;SDS011;9530;48.930;9.526;2023-02-26T11:08:02;2.67;;;1.60;;
18804;SDS011;9530;48.930;9.526;2023-02-26T11:10:38;2.93;;;1.50;;
18804;SDS011;9530;48.930;9.526;2023-02-26T11:13:06;1.97;;;1.30;;
18804;SDS011;9530;48.930;9.526;2023-02-26T11:15:34;2.87;;;1.50;;
18804;SDS011;9530;48.930;9.526;2023-02-26T11:18:02;1.90;;;1.20;;
18804;SDS011;9530;48.930;9.526;2023-02-26T11:20:30;2.83;;;1.70;;
18804;SDS011;9530;48.930;9.526;2023-02-26T11:23:01;2.77;;;1.60;;
18804;SDS011;9530;48.930;9.526;2023-02-26T11:25:31;1.90;;;1.40;;
18804;SDS011;9530;48.930;9.526;2023-02-26T11:28:01;2.80;;;1.50;;
18804;SDS011;9530;48.930;9.526;2023-02-26T11:30:29;3.70;;;1.40;;
18804;SDS011;9530;48.930;9.526;2023-02-26T11:33:05;3.30;;;1.70;;
18804;SDS011;9530;48.930;9.526;2023-02-26T11:35:41;2.20;;;1.70;;
18804;SDS011;9530;48.930;9.526;2023-02-26T11:38:09;1.60;;;1.33;;
18804;SDS011;9530;48.930;9.526;2023-02-26T11:40:44;2.37;;;1.60;;
18804;SDS011;9530;48.930;9.526;2023-02-26T11:43:13;2.10;;;1.60;;
18804;SDS011;9530;48.930;9.526;2023-02-26T11:45:43;1.77;;;1.50;;
18804;SDS011;9530;48.930;9.526;2023-02-26T11:48:14;2.83;;;1.70;;
18804;SDS011;9530;48.930;9.526;2023-02-26T11:50:48;2.07;;;1.53;;
18804;SDS011;9530;48.930;9.526;2023-02-26T11:53:18;6.43;;;1.93;;
18804;SDS011;9530;48.930;9.526;2023-02-26T11:55:50;2.75;;;1.80;;
18804;SDS011;9530;48.930;9.526;2023-02-26T11:58:20;1.80;;;1.53;;
18804;SDS011;9530;48.930;9.526;2023-02-26T12:00:50;2.57;;;1.67;;
18804;SDS011;9530;48.930;9.526;2023-02-26T12:03:21;2.17;;;1.40;;
18804;SDS011;9530;48.930;9.526;2023-02-26T12:05:53;1.90;;;1.50;;
18804;SDS011;9530;48.930;9.526;2023-02-26T12:08:23;2.23;;;1.50;;
18804;SDS011;9530;48.930;9.526;2023-02-26T12:11:04;2.67;;;1.60;;
18804;SDS011;9530;48.930;9.526;2023-02-26T12:13:43;2.23;;;1.60;;
18804;SDS011;9530;48.930;9.526;2023-02-26T12:16:24;3.10;;;1.63;;
18804;SDS011;9530;48.930;9.526;2023-02-26T12:19:03;2.07;;;1.60;;
18804;SDS011;9530;48.930;9.526;2023-02-26T12:21:42;2.87;;;1.87;;
18804;SDS011;9530;48.930;9.526;2023-02-26T12:24:37;1.70;;;1.57;;
18804;SDS011;9530;48.930;9.526;2023-02-26T12:27:22;1.50;;;1.40;;
18804;SDS011;9530;48.930;9.526;2023-02-26T12:30:02;2.17;;;1.40;;
18804;SDS011;9530;48.930;9.526;2023-02-26T12:32:56;1.87;;;1.50;;
18804;SDS011;9530;48.930;9.526;2023-02-26T12:35:37;2.20;;;1.30;;
18804;SDS011;9530;48.930;9.526;2023-02-26T12:38:14;1.33;;;1.20;;
18804;SDS011;9530;48.930;9.526;2023-02-26T12:40:52;1.30;;;1.20;;
18804;SDS011;9530;48.930;9.526;2023-02-26T12:43:39;1.80;;;1.40;;
18804;SDS011;9530;48.930;9.526;2023-02-26T12:46:14;1.37;;;1.20;;
18804;SDS011;9530;48.930;9.526;2023-02-26T12:48:52;2.50;;;1.30;;
18804;SDS011;9530;48.930;9.526;2023-02-26T12:51:34;2.07;;;1.33;;
18804;SDS011;9530;48.930;9.526;2023-02-26T12:54:17;1.83;;;1.20;;
18804;SDS011;9530;48.930;9.526;2023-02-26T12:59:59;1.60;;;1.40;;
18804;SDS011;9530;48.930;9.526;2023-02-26T13:02:53;1.63;;;1.30;;
18804;SDS011;9530;48.930;9.526;2023-02-26T13:05:43;2.30;;;1.40;;
18804;SDS011;9530;48.930;9.526;2023-02-26T13:08:22;1.47;;;1.30;;
18804;SDS011;9530;48.930;9.526;2023-02-26T13:11:00;1.20;;;1.10;;
18804;SDS011;9530;48.930;9.526;2023-02-26T13:13:49;1.63;;;1.20;;
18804;SDS011;9530;48.930;9.526;2023-02-26T13:16:46;1.93;;;1.20;;
18804;SDS011;9530;48.930;9.526;2023-02-26T13:19:23;1.63;;;1.37;;
18804;SDS011;9530;48.930;9.526;2023-02-26T13:21:58;1.40;;;1.10;;
18804;SDS011;9530;48.930;9.526;2023-02-26T13:24:31;1.73;;;1.40;;
18804;SDS011;9530;48.930;9.526;2023-02-26T13:27:01;1.43;;;1.20;;
18804;SDS011;9530;48.930;9.526;2023-02-26T13:29:31;1.30;;;1.20;;
18804;SDS011;9530;48.930;9.526;2023-02-26T13:32:02;1.60;;;1.30;;
18804;SDS011;9530;48.930;9.526;2023-02-26T13:34:38;1.43;;;1.17;;
18804;SDS011;9530;48.930;9.526;2023-02-26T13:37:11;1.53;;;1.40;;
18804;SDS011;9530;48.930;9.526;2023-02-26T13:39:49;2.50;;;1.40;;
18804;SDS011;9530;48.930;9.526;2023-02-26T13:42:27;1.53;;;1.30;;
18804;SDS011;9530;48.930;9.526;2023-02-26T13:45:02;2.07;;;1.27;;
18804;SDS011;9530;48.930;9.526;2023-02-26T13:47:49;2.10;;;1.40;;
18804;SDS011;9530;48.930;9.526;2023-02-26T13:50:26;2.17;;;1.40;;
18804;SDS011;9530;48.930;9.526;2023-02-26T13:53:00;2.90;;;1.40;;
18804;SDS011;9530;48.930;9.526;2023-02-26T13:58:17;1.70;;;1.20;;
18804;SDS011;9530;48.930;9.526;2023-02-26T14:01:03;2.90;;;1.43;;
18804;SDS011;9530;48.930;9.526;2023-02-26T14:03:33;1.63;;;1.40;;
18804;SDS011;9530;48.930;9.526;2023-02-26T14:06:36;3.40;;;1.20;;
18804;SDS011;9530;48.930;9.526;2023-02-26T14:09:14;1.40;;;1.30;;
18804;SDS011;9530;48.930;9.526;2023-02-26T14:11:57;1.73;;;1.33;;
18804;SDS011;9530;48.930;9.526;2023-02-26T14:17:36;2.27;;;1.27;;
18804;SDS011;9530;48.930;9.526;2023-02-26T14:22:52;2.00;;;1.00;;
18804;SDS011;9530;48.930;9.526;2023-02-26T14:25:39;1.63;;;1.13;;
18804;SDS011;9530;48.930;9.526;2023-02-26T14:31:17;3.17;;;1.40;;
18804;SDS011;9530;48.930;9.526;2023-02-26T14:33:47;1.60;;;1.30;;
18804;SDS011;9530;48.930;9.526;2023-02-26T14:36:35;2.50;;;1.20;;
18804;SDS011;9530;48.930;9.526;2023-02-26T14:39:07;1.60;;;1.13;;
18804;SDS011;9530;48.930;9.526;2023-02-26T14:41:38;1.73;;;1.40;;
18804;SDS011;9530;48.930;9.526;2023-02-26T14:44:09;2.73;;;1.30;;
18804;SDS011;9530;48.930;9.526;2023-02-26T14:46:41;1.63;;;1.33;;
18804;SDS011;9530;48.930;9.526;2023-02-26T14:49:13;4.27;;;1.63;;
18804;SDS011;9530;48.930;9.526;2023-02-26T14:51:45;2.40;;;1.47;;
18804;SDS011;9530;48.930;9.526;2023-02-26T14:54:21;2.37;;;1.70;;
18804;SDS011;9530;48.930;9.526;2023-02-26T14:57:00;1.70;;;1.27;;
18804;SDS011;9530;48.930;9.526;2023-02-26T14:59:36;1.93;;;1.37;;
18804;SDS011;9530;48.930;9.526;2023-02-26T15:02:19;2.07;;;1.20;;
18804;SDS011;9530;48.930;9.526;2023-02-26T15:08:00;2.50;;;1.80;;
18804;SDS011;9530;48.930;9.526;2023-02-26T15:10:47;2.87;;;1.20;;
18804;SDS011;9530;48.930;9.526;2023-02-26T15:13:38;1.53;;;1.10;;
18804;SDS011;9530;48.930;9.526;2023-02-26T15:16:18;2.53;;;1.30;;
18804;SDS011;9530;48.930;9.526;2023-02-26T15:18:57;1.67;;;1.17;;
18804;SDS011;9530;48.930;9.526;2023-02-26T15:21:35;1.90;;;1.30;;
18804;SDS011;9530;48.930;9.526;2023-02-26T15:24:12;2.60;;;1.53;;
18804;SDS011;9530;48.930;9.526;2023-02-26T15:26:42;1.70;;;1.30;;
18804;SDS011;9530;48.930;9.526;2023-02-26T15:29:12;2.00;;;1.37;;
18804;SDS011;9530;48.930;9.526;2023-02-26T15:31:40;1.50;;;1.40;;
18804;SDS011;9530;48.930;9.526;2023-02-26T15:34:10;2.10;;;1.47;;
18804;SDS011;9530;48.930;9.526;2023-02-26T15:36:39;2.57;;;1.40;;
18804;SDS011;9530;48.930;9.526;2023-02-26T15:39:09;2.27;;;1.40;;
18804;SDS011;9530;48.930;9.526;2023-02-26T15:41:39;2.33;;;1.40;;
18804;SDS011;9530;48.930;9.526;2023-02-26T15:44:07;1.60;;;1.10;;
18804;SDS011;9530;48.930;9.526;2023-02-26T15:46:38;2.17;;;1.33;;